KASN

Talladega Municipal Airport

Talladega, Alabama, USA
METAR KASN 221735Z AUTO 22004KT 10SM -DZ SCT010 SCT017 BKN027 24/23 A3008 RMK AO2 P0002 T02400232
Observed Flight Rules
May-22 @ 17:35 UTC (18 minutes ago) Marginal Visual Flight Rules
Wind Visibility Clouds Conditions
220° at 4 knots 10 miles
  • Scattered at 1,000' AGL
  • Scattered at 1,700' AGL
  • Broken at 2,700' AGL
  • Light Drizzle
Temperatures Readings Precipitation
Current 24°C / 75°F
Dewpoint 23°C / 73°F
Humidity 94%
Altimeter 30.08" Hg
Pressure 1019 hPa
Elevation 162
Current Rain 0.02
METAR KASN 221735Z AUTO 22004KT 10SM -DZ SCT010 SCT017 BKN027 24/23 A3008 RMK AO2 P0002 T02400232
Observed Flight Rules
May-22 @ 17:35 UTC
(18 minutes ago)
MVFR
Wind Visibility
220° at 4 knots 10 miles
Clouds
  • Scattered at 1,000' AGL
  • Scattered at 1,700' AGL
  • Broken at 2,700' AGL
Conditions
  • Light Drizzle
Temperature Dewpoint
24°C / 75°F 23°C / 73°F
Humidity Altimeter Pressure
94% 30.08" Hg 1019 hPa
Current Rain
0.02